sensor_id;sensor_type;location;lat;lon;timestamp;P1;durP1;ratioP1;P2;durP2;ratioP2
49942;SDS011;36011;53.362;58.948;2024-03-23T00:52:19;4.38;;;2.58;;
49942;SDS011;36011;53.362;58.948;2024-03-23T00:55:20;4.65;;;2.70;;
49942;SDS011;36011;53.362;58.948;2024-03-23T00:58:23;3.95;;;2.40;;
49942;SDS011;36011;53.362;58.948;2024-03-23T01:01:30;3.60;;;2.38;;
49942;SDS011;36011;53.362;58.948;2024-03-23T01:04:31;7.55;;;3.08;;
49942;SDS011;36011;53.362;58.948;2024-03-23T01:07:39;6.72;;;2.63;;
49942;SDS011;36011;53.362;58.948;2024-03-23T01:10:50;4.63;;;2.33;;
49942;SDS011;36011;53.362;58.948;2024-03-23T01:14:02;5.22;;;2.35;;
49942;SDS011;36011;53.362;58.948;2024-03-23T01:17:03;5.80;;;2.53;;
49942;SDS011;36011;53.362;58.948;2024-03-23T01:20:05;6.18;;;2.92;;
49942;SDS011;36011;53.362;58.948;2024-03-23T01:23:10;4.85;;;2.65;;
49942;SDS011;36011;53.362;58.948;2024-03-23T01:26:12;4.10;;;2.40;;
49942;SDS011;36011;53.362;58.948;2024-03-23T01:29:16;4.57;;;2.88;;
49942;SDS011;36011;53.362;58.948;2024-03-23T01:32:18;4.50;;;2.65;;
49942;SDS011;36011;53.362;58.948;2024-03-23T01:35:22;4.80;;;2.70;;
49942;SDS011;36011;53.362;58.948;2024-03-23T01:38:26;3.58;;;2.63;;
49942;SDS011;36011;53.362;58.948;2024-03-23T01:41:32;4.18;;;2.75;;
49942;SDS011;36011;53.362;58.948;2024-03-23T01:44:35;6.05;;;2.50;;
49942;SDS011;36011;53.362;58.948;2024-03-23T01:47:42;4.70;;;2.25;;
49942;SDS011;36011;53.362;58.948;2024-03-23T01:50:48;4.32;;;2.60;;
49942;SDS011;36011;53.362;58.948;2024-03-23T01:53:52;6.57;;;2.83;;
49942;SDS011;36011;53.362;58.948;2024-03-23T01:56:59;5.78;;;3.70;;
49942;SDS011;36011;53.362;58.948;2024-03-23T02:00:03;4.75;;;3.08;;
49942;SDS011;36011;53.362;58.948;2024-03-23T02:03:24;5.85;;;2.97;;
49942;SDS011;36011;53.362;58.948;2024-03-23T02:06:26;5.10;;;2.50;;
49942;SDS011;36011;53.362;58.948;2024-03-23T02:09:30;4.38;;;2.30;;
49942;SDS011;36011;53.362;58.948;2024-03-23T02:12:34;4.75;;;2.33;;
49942;SDS011;36011;53.362;58.948;2024-03-23T02:15:38;5.07;;;2.63;;
49942;SDS011;36011;53.362;58.948;2024-03-23T02:19:00;4.50;;;2.85;;
49942;SDS011;36011;53.362;58.948;2024-03-23T02:22:01;3.53;;;2.60;;
49942;SDS011;36011;53.362;58.948;2024-03-23T02:25:06;7.60;;;2.63;;
49942;SDS011;36011;53.362;58.948;2024-03-23T02:28:12;4.93;;;2.30;;
49942;SDS011;36011;53.362;58.948;2024-03-23T02:31:18;6.35;;;2.83;;
49942;SDS011;36011;53.362;58.948;2024-03-23T02:34:22;6.28;;;2.70;;
49942;SDS011;36011;53.362;58.948;2024-03-23T02:37:24;5.95;;;2.92;;
49942;SDS011;36011;53.362;58.948;2024-03-23T02:40:30;6.70;;;2.70;;
49942;SDS011;36011;53.362;58.948;2024-03-23T02:43:41;7.65;;;3.25;;
49942;SDS011;36011;53.362;58.948;2024-03-23T02:46:43;8.10;;;3.58;;
49942;SDS011;36011;53.362;58.948;2024-03-23T02:49:44;5.38;;;2.78;;
49942;SDS011;36011;53.362;58.948;2024-03-23T02:52:45;5.70;;;3.22;;
49942;SDS011;36011;53.362;58.948;2024-03-23T02:55:47;7.65;;;3.63;;
49942;SDS011;36011;53.362;58.948;2024-03-23T02:58:51;7.70;;;3.70;;
49942;SDS011;36011;53.362;58.948;2024-03-23T03:01:56;6.45;;;3.08;;
49942;SDS011;36011;53.362;58.948;2024-03-23T03:05:03;7.45;;;2.97;;
49942;SDS011;36011;53.362;58.948;2024-03-23T03:08:09;4.82;;;2.83;;
49942;SDS011;36011;53.362;58.948;2024-03-23T03:14:19;4.07;;;2.25;;
49942;SDS011;36011;53.362;58.948;2024-03-23T03:17:20;8.05;;;2.90;;
49942;SDS011;36011;53.362;58.948;2024-03-23T03:20:29;7.72;;;2.67;;
49942;SDS011;36011;53.362;58.948;2024-03-23T03:23:36;4.45;;;2.47;;
49942;SDS011;36011;53.362;58.948;2024-03-23T03:26:41;5.88;;;2.15;;
49942;SDS011;36011;53.362;58.948;2024-03-23T03:29:42;4.50;;;2.38;;
49942;SDS011;36011;53.362;58.948;2024-03-23T03:32:44;6.03;;;2.70;;
49942;SDS011;36011;53.362;58.948;2024-03-23T03:35:45;3.30;;;2.53;;
49942;SDS011;36011;53.362;58.948;2024-03-23T03:38:50;5.95;;;2.45;;
49942;SDS011;36011;53.362;58.948;2024-03-23T03:41:57;7.93;;;3.47;;
49942;SDS011;36011;53.362;58.948;2024-03-23T03:44:58;5.38;;;3.08;;
49942;SDS011;36011;53.362;58.948;2024-03-23T03:47:59;9.00;;;3.72;;
49942;SDS011;36011;53.362;58.948;2024-03-23T03:51:03;8.43;;;3.72;;
49942;SDS011;36011;53.362;58.948;2024-03-23T03:54:13;9.98;;;3.65;;
49942;SDS011;36011;53.362;58.948;2024-03-23T03:57:14;13.98;;;6.15;;
49942;SDS011;36011;53.362;58.948;2024-03-23T04:00:20;10.30;;;3.58;;
49942;SDS011;36011;53.362;58.948;2024-03-23T04:03:25;6.18;;;3.40;;
49942;SDS011;36011;53.362;58.948;2024-03-23T04:06:27;4.38;;;2.58;;
49942;SDS011;36011;53.362;58.948;2024-03-23T04:09:28;6.78;;;2.85;;
49942;SDS011;36011;53.362;58.948;2024-03-23T04:12:34;5.57;;;2.97;;
49942;SDS011;36011;53.362;58.948;2024-03-23T04:15:36;4.78;;;2.50;;
49942;SDS011;36011;53.362;58.948;2024-03-23T04:18:40;7.70;;;2.78;;
49942;SDS011;36011;53.362;58.948;2024-03-23T04:21:47;4.13;;;2.10;;
49942;SDS011;36011;53.362;58.948;2024-03-23T04:24:50;8.23;;;4.35;;
49942;SDS011;36011;53.362;58.948;2024-03-23T04:27:59;5.68;;;2.80;;
49942;SDS011;36011;53.362;58.948;2024-03-23T04:31:04;4.72;;;2.80;;
49942;SDS011;36011;53.362;58.948;2024-03-23T04:34:06;7.43;;;2.95;;
49942;SDS011;36011;53.362;58.948;2024-03-23T04:37:13;4.07;;;2.33;;
49942;SDS011;36011;53.362;58.948;2024-03-23T04:40:18;3.83;;;1.95;;
49942;SDS011;36011;53.362;58.948;2024-03-23T04:43:26;6.43;;;2.67;;
49942;SDS011;36011;53.362;58.948;2024-03-23T04:46:30;4.13;;;2.28;;
49942;SDS011;36011;53.362;58.948;2024-03-23T04:49:32;3.58;;;2.22;;
49942;SDS011;36011;53.362;58.948;2024-03-23T04:52:36;6.68;;;2.10;;
49942;SDS011;36011;53.362;58.948;2024-03-23T04:55:37;4.00;;;1.73;;
49942;SDS011;36011;53.362;58.948;2024-03-23T04:58:40;4.63;;;2.30;;
49942;SDS011;36011;53.362;58.948;2024-03-23T05:01:50;4.97;;;2.55;;
49942;SDS011;36011;53.362;58.948;2024-03-23T05:04:55;4.80;;;2.63;;
49942;SDS011;36011;53.362;58.948;2024-03-23T05:08:01;6.68;;;2.47;;
49942;SDS011;36011;53.362;58.948;2024-03-23T05:11:08;4.97;;;2.67;;
49942;SDS011;36011;53.362;58.948;2024-03-23T05:14:12;11.75;;;4.90;;
49942;SDS011;36011;53.362;58.948;2024-03-23T05:17:22;13.88;;;6.18;;
49942;SDS011;36011;53.362;58.948;2024-03-23T05:20:25;4.07;;;2.95;;
49942;SDS011;36011;53.362;58.948;2024-03-23T05:23:31;4.95;;;2.78;;
49942;SDS011;36011;53.362;58.948;2024-03-23T05:26:35;5.68;;;2.58;;
49942;SDS011;36011;53.362;58.948;2024-03-23T05:29:38;5.65;;;2.47;;
49942;SDS011;36011;53.362;58.948;2024-03-23T05:32:43;6.32;;;2.80;;
49942;SDS011;36011;53.362;58.948;2024-03-23T05:35:55;9.43;;;3.35;;
49942;SDS011;36011;53.362;58.948;2024-03-23T05:39:00;4.45;;;2.75;;
49942;SDS011;36011;53.362;58.948;2024-03-23T05:42:03;5.43;;;2.60;;
49942;SDS011;36011;53.362;58.948;2024-03-23T05:45:08;2.97;;;2.10;;
49942;SDS011;36011;53.362;58.948;2024-03-23T05:48:12;3.35;;;2.17;;
49942;SDS011;36011;53.362;58.948;2024-03-23T05:51:14;3.83;;;2.20;;
49942;SDS011;36011;53.362;58.948;2024-03-23T05:54:17;7.83;;;2.03;;
49942;SDS011;36011;53.362;58.948;2024-03-23T05:57:23;3.15;;;1.60;;
49942;SDS011;36011;53.362;58.948;2024-03-23T06:00:30;3.58;;;1.80;;
49942;SDS011;36011;53.362;58.948;2024-03-23T06:03:37;3.28;;;1.50;;
49942;SDS011;36011;53.362;58.948;2024-03-23T06:06:40;4.05;;;2.00;;
49942;SDS011;36011;53.362;58.948;2024-03-23T06:09:43;3.33;;;1.13;;
49942;SDS011;36011;53.362;58.948;2024-03-23T06:12:49;4.35;;;2.80;;
49942;SDS011;36011;53.362;58.948;2024-03-23T06:15:52;3.25;;;1.95;;
49942;SDS011;36011;53.362;58.948;2024-03-23T06:18:55;5.18;;;2.35;;
49942;SDS011;36011;53.362;58.948;2024-03-23T06:21:56;4.32;;;1.77;;
49942;SDS011;36011;53.362;58.948;2024-03-23T06:25:00;3.05;;;1.25;;
49942;SDS011;36011;53.362;58.948;2024-03-23T06:28:08;2.58;;;1.20;;
49942;SDS011;36011;53.362;58.948;2024-03-23T06:31:14;1.67;;;1.17;;
49942;SDS011;36011;53.362;58.948;2024-03-23T06:34:21;4.43;;;1.35;;
49942;SDS011;36011;53.362;58.948;2024-03-23T06:37:24;3.40;;;1.00;;
49942;SDS011;36011;53.362;58.948;2024-03-23T06:40:30;2.88;;;1.70;;
49942;SDS011;36011;53.362;58.948;2024-03-23T06:43:38;4.13;;;1.38;;
49942;SDS011;36011;53.362;58.948;2024-03-23T06:46:43;2.15;;;1.13;;
49942;SDS011;36011;53.362;58.948;2024-03-23T06:49:46;3.17;;;1.13;;
49942;SDS011;36011;53.362;58.948;2024-03-23T06:52:53;3.47;;;1.02;;
49942;SDS011;36011;53.362;58.948;2024-03-23T06:56:00;2.80;;;0.90;;
49942;SDS011;36011;53.362;58.948;2024-03-23T06:59:04;1.40;;;0.95;;
49942;SDS011;36011;53.362;58.948;2024-03-23T07:02:09;2.75;;;1.17;;
49942;SDS011;36011;53.362;58.948;2024-03-23T07:05:16;1.88;;;0.90;;
49942;SDS011;36011;53.362;58.948;2024-03-23T07:08:22;2.28;;;1.02;;
49942;SDS011;36011;53.362;58.948;2024-03-23T07:11:27;3.20;;;1.00;;
49942;SDS011;36011;53.362;58.948;2024-03-23T07:14:34;2.33;;;1.13;;
49942;SDS011;36011;53.362;58.948;2024-03-23T07:17:35;2.00;;;1.17;;
49942;SDS011;36011;53.362;58.948;2024-03-23T07:20:45;1.20;;;1.10;;
49942;SDS011;36011;53.362;58.948;2024-03-23T07:24:01;3.63;;;1.00;;
49942;SDS011;36011;53.362;58.948;2024-03-23T07:27:07;3.83;;;0.80;;
49942;SDS011;36011;53.362;58.948;2024-03-23T07:30:13;1.60;;;1.05;;
49942;SDS011;36011;53.362;58.948;2024-03-23T07:33:20;3.97;;;1.27;;
49942;SDS011;36011;53.362;58.948;2024-03-23T07:36:25;1.33;;;0.73;;
49942;SDS011;36011;53.362;58.948;2024-03-23T07:39:28;2.13;;;1.00;;
49942;SDS011;36011;53.362;58.948;2024-03-23T07:42:36;6.45;;;1.50;;
49942;SDS011;36011;53.362;58.948;2024-03-23T07:45:39;1.88;;;0.95;;
49942;SDS011;36011;53.362;58.948;2024-03-23T07:48:47;3.10;;;1.10;;
49942;SDS011;36011;53.362;58.948;2024-03-23T07:51:53;3.28;;;1.30;;
49942;SDS011;36011;53.362;58.948;2024-03-23T07:54:58;1.73;;;1.20;;
49942;SDS011;36011;53.362;58.948;2024-03-23T07:58:02;1.27;;;0.88;;
49942;SDS011;36011;53.362;58.948;2024-03-23T08:01:07;2.92;;;0.90;;
49942;SDS011;36011;53.362;58.948;2024-03-23T08:04:10;2.10;;;0.63;;
49942;SDS011;36011;53.362;58.948;2024-03-23T08:07:14;2.38;;;1.10;;
49942;SDS011;36011;53.362;58.948;2024-03-23T08:10:18;1.75;;;0.82;;
49942;SDS011;36011;53.362;58.948;2024-03-23T08:13:28;4.05;;;1.90;;
49942;SDS011;36011;53.362;58.948;2024-03-23T08:16:33;3.83;;;1.83;;
49942;SDS011;36011;53.362;58.948;2024-03-23T08:19:42;2.72;;;1.30;;
49942;SDS011;36011;53.362;58.948;2024-03-23T08:22:50;3.45;;;2.00;;
49942;SDS011;36011;53.362;58.948;2024-03-23T08:25:52;4.88;;;1.63;;
49942;SDS011;36011;53.362;58.948;2024-03-23T08:29:00;3.88;;;2.05;;
49942;SDS011;36011;53.362;58.948;2024-03-23T08:32:04;5.57;;;2.88;;
49942;SDS011;36011;53.362;58.948;2024-03-23T08:35:07;3.55;;;2.28;;
49942;SDS011;36011;53.362;58.948;2024-03-23T08:38:12;5.05;;;2.20;;
49942;SDS011;36011;53.362;58.948;2024-03-23T08:41:20;6.25;;;2.67;;
49942;SDS011;36011;53.362;58.948;2024-03-23T08:44:28;4.28;;;1.95;;
49942;SDS011;36011;53.362;58.948;2024-03-23T08:47:34;2.03;;;1.40;;
49942;SDS011;36011;53.362;58.948;2024-03-23T08:50:39;1.60;;;1.30;;
49942;SDS011;36011;53.362;58.948;2024-03-23T08:53:41;1.55;;;0.88;;
49942;SDS011;36011;53.362;58.948;2024-03-23T08:56:43;1.58;;;0.82;;
49942;SDS011;36011;53.362;58.948;2024-03-23T08:59:50;2.33;;;0.98;;
49942;SDS011;36011;53.362;58.948;2024-03-23T09:02:53;1.15;;;0.75;;
49942;SDS011;36011;53.362;58.948;2024-03-23T09:05:54;1.27;;;0.90;;
49942;SDS011;36011;53.362;58.948;2024-03-23T09:08:59;2.05;;;0.85;;
49942;SDS011;36011;53.362;58.948;2024-03-23T09:12:06;1.30;;;0.80;;
49942;SDS011;36011;53.362;58.948;2024-03-23T09:15:07;0.98;;;0.77;;
49942;SDS011;36011;53.362;58.948;2024-03-23T09:18:09;1.25;;;1.15;;
49942;SDS011;36011;53.362;58.948;2024-03-23T09:21:13;4.32;;;2.28;;
49942;SDS011;36011;53.362;58.948;2024-03-23T09:24:20;3.15;;;1.70;;
49942;SDS011;36011;53.362;58.948;2024-03-23T09:27:30;1.75;;;1.45;;
49942;SDS011;36011;53.362;58.948;2024-03-23T09:30:32;2.83;;;1.83;;
49942;SDS011;36011;53.362;58.948;2024-03-23T09:33:39;3.13;;;2.15;;
49942;SDS011;36011;53.362;58.948;2024-03-23T09:36:41;4.00;;;2.05;;
49942;SDS011;36011;53.362;58.948;2024-03-23T09:39:46;3.90;;;2.63;;
49942;SDS011;36011;53.362;58.948;2024-03-23T09:42:53;4.22;;;1.85;;
49942;SDS011;36011;53.362;58.948;2024-03-23T09:45:55;4.38;;;2.72;;
49942;SDS011;36011;53.362;58.948;2024-03-23T09:48:59;2.50;;;2.22;;
49942;SDS011;36011;53.362;58.948;2024-03-23T09:52:01;4.32;;;1.80;;
49942;SDS011;36011;53.362;58.948;2024-03-23T09:55:06;4.95;;;2.47;;
49942;SDS011;36011;53.362;58.948;2024-03-23T09:58:08;2.85;;;2.30;;
49942;SDS011;36011;53.362;58.948;2024-03-23T10:01:20;2.58;;;1.92;;
49942;SDS011;36011;53.362;58.948;2024-03-23T10:04:41;3.45;;;2.03;;
49942;SDS011;36011;53.362;58.948;2024-03-23T10:07:43;3.50;;;2.33;;
49942;SDS011;36011;53.362;58.948;2024-03-23T10:10:47;5.80;;;2.67;;
49942;SDS011;36011;53.362;58.948;2024-03-23T10:13:53;5.07;;;2.60;;
49942;SDS011;36011;53.362;58.948;2024-03-23T10:17:06;3.92;;;3.05;;
49942;SDS011;36011;53.362;58.948;2024-03-23T10:20:20;5.18;;;2.75;;
49942;SDS011;36011;53.362;58.948;2024-03-23T10:23:25;6.32;;;4.07;;
49942;SDS011;36011;53.362;58.948;2024-03-23T10:26:32;5.65;;;3.45;;
49942;SDS011;36011;53.362;58.948;2024-03-23T10:29:37;3.40;;;2.75;;
49942;SDS011;36011;53.362;58.948;2024-03-23T10:32:38;5.93;;;3.22;;
49942;SDS011;36011;53.362;58.948;2024-03-23T10:35:44;5.28;;;3.30;;
49942;SDS011;36011;53.362;58.948;2024-03-23T10:38:54;6.40;;;3.53;;
49942;SDS011;36011;53.362;58.948;2024-03-23T10:42:04;9.50;;;5.57;;
49942;SDS011;36011;53.362;58.948;2024-03-23T10:45:10;14.38;;;7.28;;
49942;SDS011;36011;53.362;58.948;2024-03-23T10:48:16;10.15;;;5.55;;
49942;SDS011;36011;53.362;58.948;2024-03-23T10:51:18;12.68;;;5.82;;
49942;SDS011;36011;53.362;58.948;2024-03-23T10:54:22;14.25;;;6.82;;
49942;SDS011;36011;53.362;58.948;2024-03-23T10:57:40;8.52;;;5.43;;
49942;SDS011;36011;53.362;58.948;2024-03-23T11:00:47;11.50;;;6.70;;
49942;SDS011;36011;53.362;58.948;2024-03-23T11:06:50;6.38;;;3.95;;
49942;SDS011;36011;53.362;58.948;2024-03-23T11:09:59;7.65;;;3.78;;
49942;SDS011;36011;53.362;58.948;2024-03-23T11:13:22;6.18;;;3.33;;
49942;SDS011;36011;53.362;58.948;2024-03-23T11:16:27;6.68;;;4.47;;
49942;SDS011;36011;53.362;58.948;2024-03-23T11:19:35;5.45;;;3.63;;
49942;SDS011;36011;53.362;58.948;2024-03-23T11:25:50;4.63;;;2.72;;
49942;SDS011;36011;53.362;58.948;2024-03-23T11:29:14;6.75;;;3.50;;
49942;SDS011;36011;53.362;58.948;2024-03-23T11:32:17;3.67;;;3.08;;
49942;SDS011;36011;53.362;58.948;2024-03-23T11:38:36;3.83;;;2.50;;
49942;SDS011;36011;53.362;58.948;2024-03-23T11:41:46;4.70;;;3.08;;
49942;SDS011;36011;53.362;58.948;2024-03-23T11:44:49;3.20;;;2.47;;
49942;SDS011;36011;53.362;58.948;2024-03-23T11:51:30;3.55;;;3.20;;
49942;SDS011;36011;53.362;58.948;2024-03-23T11:54:35;4.00;;;3.08;;
49942;SDS011;36011;53.362;58.948;2024-03-23T11:57:42;8.05;;;3.22;;
49942;SDS011;36011;53.362;58.948;2024-03-23T12:04:00;5.75;;;3.85;;
49942;SDS011;36011;53.362;58.948;2024-03-23T12:10:14;8.68;;;3.83;;
49942;SDS011;36011;53.362;58.948;2024-03-23T12:13:21;6.13;;;3.13;;
49942;SDS011;36011;53.362;58.948;2024-03-23T12:16:25;4.32;;;3.20;;
49942;SDS011;36011;53.362;58.948;2024-03-23T12:19:30;4.97;;;3.35;;
49942;SDS011;36011;53.362;58.948;2024-03-23T12:22:34;6.18;;;3.75;;
49942;SDS011;36011;53.362;58.948;2024-03-23T12:25:36;7.47;;;4.40;;
49942;SDS011;36011;53.362;58.948;2024-03-23T12:28:38;5.65;;;3.92;;
49942;SDS011;36011;53.362;58.948;2024-03-23T12:31:42;7.38;;;4.53;;
49942;SDS011;36011;53.362;58.948;2024-03-23T12:34:50;5.38;;;4.05;;
49942;SDS011;36011;53.362;58.948;2024-03-23T12:37:51;4.55;;;3.47;;
49942;SDS011;36011;53.362;58.948;2024-03-23T12:40:58;9.63;;;4.25;;
49942;SDS011;36011;53.362;58.948;2024-03-23T12:44:04;7.55;;;3.45;;
49942;SDS011;36011;53.362;58.948;2024-03-23T12:47:10;4.70;;;2.88;;
49942;SDS011;36011;53.362;58.948;2024-03-23T12:50:17;5.07;;;3.70;;
49942;SDS011;36011;53.362;58.948;2024-03-23T12:53:21;5.68;;;3.33;;
49942;SDS011;36011;53.362;58.948;2024-03-23T12:56:26;6.65;;;4.40;;
49942;SDS011;36011;53.362;58.948;2024-03-23T12:59:31;5.10;;;3.83;;
49942;SDS011;36011;53.362;58.948;2024-03-23T13:02:35;4.55;;;4.00;;
49942;SDS011;36011;53.362;58.948;2024-03-23T13:05:51;6.47;;;4.50;;
49942;SDS011;36011;53.362;58.948;2024-03-23T13:08:53;7.65;;;4.47;;
49942;SDS011;36011;53.362;58.948;2024-03-23T13:12:00;7.05;;;4.80;;
49942;SDS011;36011;53.362;58.948;2024-03-23T13:15:01;6.82;;;4.65;;
49942;SDS011;36011;53.362;58.948;2024-03-23T13:18:07;4.57;;;3.35;;
49942;SDS011;36011;53.362;58.948;2024-03-23T13:21:08;2.80;;;2.47;;
49942;SDS011;36011;53.362;58.948;2024-03-23T13:24:10;8.20;;;4.90;;
49942;SDS011;36011;53.362;58.948;2024-03-23T13:27:16;6.13;;;4.65;;
49942;SDS011;36011;53.362;58.948;2024-03-23T13:30:22;6.82;;;4.72;;
49942;SDS011;36011;53.362;58.948;2024-03-23T13:33:27;8.75;;;4.63;;
49942;SDS011;36011;53.362;58.948;2024-03-23T13:36:35;6.32;;;4.57;;
49942;SDS011;36011;53.362;58.948;2024-03-23T13:39:44;9.43;;;5.05;;
49942;SDS011;36011;53.362;58.948;2024-03-23T13:42:51;5.18;;;3.42;;
49942;SDS011;36011;53.362;58.948;2024-03-23T13:45:56;7.28;;;4.50;;
49942;SDS011;36011;53.362;58.948;2024-03-23T13:49:01;7.18;;;3.55;;
49942;SDS011;36011;53.362;58.948;2024-03-23T13:52:07;6.10;;;3.03;;
49942;SDS011;36011;53.362;58.948;2024-03-23T13:55:17;6.78;;;4.40;;
49942;SDS011;36011;53.362;58.948;2024-03-23T13:58:22;5.13;;;3.35;;
49942;SDS011;36011;53.362;58.948;2024-03-23T14:01:28;5.85;;;3.67;;
49942;SDS011;36011;53.362;58.948;2024-03-23T14:04:35;7.55;;;4.32;;
49942;SDS011;36011;53.362;58.948;2024-03-23T14:07:41;7.10;;;4.78;;
49942;SDS011;36011;53.362;58.948;2024-03-23T14:10:42;6.93;;;4.20;;
49942;SDS011;36011;53.362;58.948;2024-03-23T14:13:45;6.27;;;4.27;;
49942;SDS011;36011;53.362;58.948;2024-03-23T14:16:46;9.30;;;5.15;;
49942;SDS011;36011;53.362;58.948;2024-03-23T14:19:53;6.85;;;3.95;;
49942;SDS011;36011;53.362;58.948;2024-03-23T14:22:59;8.63;;;5.13;;
49942;SDS011;36011;53.362;58.948;2024-03-23T14:26:01;12.10;;;6.68;;
49942;SDS011;36011;53.362;58.948;2024-03-23T14:29:08;12.38;;;5.75;;
49942;SDS011;36011;53.362;58.948;2024-03-23T14:32:14;9.05;;;5.43;;
49942;SDS011;36011;53.362;58.948;2024-03-23T14:35:18;10.85;;;5.40;;
49942;SDS011;36011;53.362;58.948;2024-03-23T14:38:20;10.93;;;5.03;;
49942;SDS011;36011;53.362;58.948;2024-03-23T14:41:26;9.35;;;4.93;;
49942;SDS011;36011;53.362;58.948;2024-03-23T14:44:33;7.80;;;4.72;;
49942;SDS011;36011;53.362;58.948;2024-03-23T14:47:39;6.20;;;4.07;;
49942;SDS011;36011;53.362;58.948;2024-03-23T14:50:45;6.38;;;4.25;;
49942;SDS011;36011;53.362;58.948;2024-03-23T14:53:53;6.22;;;3.75;;
49942;SDS011;36011;53.362;58.948;2024-03-23T14:56:57;4.40;;;3.05;;
49942;SDS011;36011;53.362;58.948;2024-03-23T15:00:04;4.60;;;3.13;;
49942;SDS011;36011;53.362;58.948;2024-03-23T15:03:11;6.13;;;3.85;;
49942;SDS011;36011;53.362;58.948;2024-03-23T15:09:19;7.65;;;4.38;;
49942;SDS011;36011;53.362;58.948;2024-03-23T15:12:20;6.25;;;3.65;;
49942;SDS011;36011;53.362;58.948;2024-03-23T15:15:23;10.02;;;6.15;;
49942;SDS011;36011;53.362;58.948;2024-03-23T15:18:25;7.45;;;4.55;;
49942;SDS011;36011;53.362;58.948;2024-03-23T15:21:29;8.25;;;4.40;;
49942;SDS011;36011;53.362;58.948;2024-03-23T15:24:39;8.98;;;4.25;;
49942;SDS011;36011;53.362;58.948;2024-03-23T15:27:40;8.98;;;5.00;;
49942;SDS011;36011;53.362;58.948;2024-03-23T15:30:42;8.77;;;4.93;;
49942;SDS011;36011;53.362;58.948;2024-03-23T15:33:45;7.35;;;4.75;;
49942;SDS011;36011;53.362;58.948;2024-03-23T15:36:47;9.73;;;4.65;;
49942;SDS011;36011;53.362;58.948;2024-03-23T15:39:51;13.00;;;5.72;;
49942;SDS011;36011;53.362;58.948;2024-03-23T15:42:53;7.07;;;4.60;;
49942;SDS011;36011;53.362;58.948;2024-03-23T15:45:58;11.90;;;4.75;;
49942;SDS011;36011;53.362;58.948;2024-03-23T15:49:03;12.18;;;5.32;;
49942;SDS011;36011;53.362;58.948;2024-03-23T15:52:07;7.65;;;4.30;;
49942;SDS011;36011;53.362;58.948;2024-03-23T15:55:14;7.50;;;4.35;;
49942;SDS011;36011;53.362;58.948;2024-03-23T15:58:16;6.18;;;4.50;;
49942;SDS011;36011;53.362;58.948;2024-03-23T16:01:17;9.50;;;5.20;;
49942;SDS011;36011;53.362;58.948;2024-03-23T16:04:21;8.35;;;5.22;;
49942;SDS011;36011;53.362;58.948;2024-03-23T16:07:25;13.77;;;6.85;;
49942;SDS011;36011;53.362;58.948;2024-03-23T16:13:34;7.20;;;4.60;;
49942;SDS011;36011;53.362;58.948;2024-03-23T16:16:39;6.07;;;4.20;;
49942;SDS011;36011;53.362;58.948;2024-03-23T16:19:43;8.02;;;4.03;;
49942;SDS011;36011;53.362;58.948;2024-03-23T16:22:47;5.13;;;3.15;;
49942;SDS011;36011;53.362;58.948;2024-03-23T16:25:51;10.13;;;5.45;;
49942;SDS011;36011;53.362;58.948;2024-03-23T16:28:59;9.18;;;5.35;;
49942;SDS011;36011;53.362;58.948;2024-03-23T16:32:03;5.60;;;3.65;;
49942;SDS011;36011;53.362;58.948;2024-03-23T16:38:12;11.25;;;5.13;;
49942;SDS011;36011;53.362;58.948;2024-03-23T16:41:21;6.63;;;3.95;;
49942;SDS011;36011;53.362;58.948;2024-03-23T16:44:25;9.77;;;4.90;;
49942;SDS011;36011;53.362;58.948;2024-03-23T16:47:29;8.82;;;4.18;;
49942;SDS011;36011;53.362;58.948;2024-03-23T16:50:35;11.23;;;6.10;;
49942;SDS011;36011;53.362;58.948;2024-03-23T16:53:39;10.60;;;5.70;;
49942;SDS011;36011;53.362;58.948;2024-03-23T16:56:41;10.80;;;4.43;;
49942;SDS011;36011;53.362;58.948;2024-03-23T16:59:47;9.90;;;5.07;;
49942;SDS011;36011;53.362;58.948;2024-03-23T17:02:53;8.55;;;3.95;;
49942;SDS011;36011;53.362;58.948;2024-03-23T17:05:57;11.57;;;5.05;;
49942;SDS011;36011;53.362;58.948;2024-03-23T17:09:01;9.20;;;4.38;;
49942;SDS011;36011;53.362;58.948;2024-03-23T17:12:03;6.45;;;3.30;;
49942;SDS011;36011;53.362;58.948;2024-03-23T17:15:08;5.30;;;2.70;;
49942;SDS011;36011;53.362;58.948;2024-03-23T17:18:10;5.22;;;2.33;;
49942;SDS011;36011;53.362;58.948;2024-03-23T17:21:18;5.88;;;2.45;;
49942;SDS011;36011;53.362;58.948;2024-03-23T17:24:26;6.68;;;2.80;;
49942;SDS011;36011;53.362;58.948;2024-03-23T17:27:29;3.70;;;2.25;;
49942;SDS011;36011;53.362;58.948;2024-03-23T17:30:34;2.35;;;1.90;;
49942;SDS011;36011;53.362;58.948;2024-03-23T17:33:39;2.65;;;1.90;;
49942;SDS011;36011;53.362;58.948;2024-03-23T17:36:43;3.05;;;1.98;;
49942;SDS011;36011;53.362;58.948;2024-03-23T17:39:45;2.50;;;2.08;;
49942;SDS011;36011;53.362;58.948;2024-03-23T17:42:46;2.63;;;2.17;;
49942;SDS011;36011;53.362;58.948;2024-03-23T17:45:50;2.80;;;1.83;;
49942;SDS011;36011;53.362;58.948;2024-03-23T17:49:02;3.17;;;1.90;;
49942;SDS011;36011;53.362;58.948;2024-03-23T17:52:09;2.75;;;1.90;;
49942;SDS011;36011;53.362;58.948;2024-03-23T17:55:16;3.20;;;1.98;;
49942;SDS011;36011;53.362;58.948;2024-03-23T17:58:19;5.53;;;2.30;;
49942;SDS011;36011;53.362;58.948;2024-03-23T18:01:22;4.10;;;2.33;;
49942;SDS011;36011;53.362;58.948;2024-03-23T18:04:30;3.92;;;2.30;;
49942;SDS011;36011;53.362;58.948;2024-03-23T18:07:33;3.35;;;2.17;;
49942;SDS011;36011;53.362;58.948;2024-03-23T18:10:40;3.70;;;2.10;;
49942;SDS011;36011;53.362;58.948;2024-03-23T18:13:44;3.80;;;1.80;;
49942;SDS011;36011;53.362;58.948;2024-03-23T18:16:50;2.78;;;1.73;;
49942;SDS011;36011;53.362;58.948;2024-03-23T18:19:54;3.38;;;1.65;;
49942;SDS011;36011;53.362;58.948;2024-03-23T18:22:55;3.30;;;1.90;;
49942;SDS011;36011;53.362;58.948;2024-03-23T18:25:59;3.30;;;2.03;;
49942;SDS011;36011;53.362;58.948;2024-03-23T18:29:04;3.10;;;1.48;;
49942;SDS011;36011;53.362;58.948;2024-03-23T18:32:12;2.42;;;2.05;;
49942;SDS011;36011;53.362;58.948;2024-03-23T18:35:17;4.05;;;2.83;;
49942;SDS011;36011;53.362;58.948;2024-03-23T18:38:23;3.20;;;2.05;;
49942;SDS011;36011;53.362;58.948;2024-03-23T18:41:27;5.30;;;2.50;;
49942;SDS011;36011;53.362;58.948;2024-03-23T18:44:29;7.68;;;4.20;;
49942;SDS011;36011;53.362;58.948;2024-03-23T18:47:36;6.53;;;3.97;;
49942;SDS011;36011;53.362;58.948;2024-03-23T18:50:43;3.50;;;2.17;;
49942;SDS011;36011;53.362;58.948;2024-03-23T18:53:50;3.58;;;2.00;;
49942;SDS011;36011;53.362;58.948;2024-03-23T18:56:52;3.72;;;1.42;;
49942;SDS011;36011;53.362;58.948;2024-03-23T18:59:59;1.80;;;1.33;;
49942;SDS011;36011;53.362;58.948;2024-03-23T19:03:00;0.90;;;0.90;;
49942;SDS011;36011;53.362;58.948;2024-03-23T19:06:07;2.92;;;2.10;;
49942;SDS011;36011;53.362;58.948;2024-03-23T19:09:11;2.85;;;1.33;;
49942;SDS011;36011;53.362;58.948;2024-03-23T19:12:15;2.72;;;1.10;;
49942;SDS011;36011;53.362;58.948;2024-03-23T19:15:21;2.78;;;1.80;;
49942;SDS011;36011;53.362;58.948;2024-03-23T19:18:30;4.07;;;2.10;;
49942;SDS011;36011;53.362;58.948;2024-03-23T19:24:59;1.65;;;0.90;;
49942;SDS011;36011;53.362;58.948;2024-03-23T19:28:04;1.63;;;1.17;;
49942;SDS011;36011;53.362;58.948;2024-03-23T19:31:08;3.20;;;1.10;;
49942;SDS011;36011;53.362;58.948;2024-03-23T19:34:11;1.97;;;1.07;;
49942;SDS011;36011;53.362;58.948;2024-03-23T19:37:14;1.35;;;0.73;;
49942;SDS011;36011;53.362;58.948;2024-03-23T19:40:18;1.33;;;1.02;;
49942;SDS011;36011;53.362;58.948;2024-03-23T19:43:23;2.45;;;0.52;;